sensor_id;sensor_type;location;lat;lon;timestamp;temperature;humidity
3868;DHT22;1949;48.152;11.528;2023-02-07T00:01:14;7.10;39.30
3868;DHT22;1949;48.152;11.528;2023-02-07T00:03:41;7.10;39.40
3868;DHT22;1949;48.152;11.528;2023-02-07T00:06:10;7.10;39.30
3868;DHT22;1949;48.152;11.528;2023-02-07T00:08:37;7.10;39.20
3868;DHT22;1949;48.152;11.528;2023-02-07T00:11:13;7.10;39.30
3868;DHT22;1949;48.152;11.528;2023-02-07T00:13:41;7.10;39.30
3868;DHT22;1949;48.152;11.528;2023-02-07T00:16:07;7.10;39.30
3868;DHT22;1949;48.152;11.528;2023-02-07T00:18:34;7.10;39.30
3868;DHT22;1949;48.152;11.528;2023-02-07T00:21:11;7.10;39.30
3868;DHT22;1949;48.152;11.528;2023-02-07T00:23:38;7.10;39.40
3868;DHT22;1949;48.152;11.528;2023-02-07T00:26:08;7.20;39.60
3868;DHT22;1949;48.152;11.528;2023-02-07T00:28:35;7.10;39.40
3868;DHT22;1949;48.152;11.528;2023-02-07T00:33:34;7.00;39.20
3868;DHT22;1949;48.152;11.528;2023-02-07T00:36:04;7.20;39.40
3868;DHT22;1949;48.152;11.528;2023-02-07T00:38:30;7.00;39.30
3868;DHT22;1949;48.152;11.528;2023-02-07T00:40:57;7.00;39.20
3868;DHT22;1949;48.152;11.528;2023-02-07T00:43:23;7.00;39.30
3868;DHT22;1949;48.152;11.528;2023-02-07T00:45:50;7.00;39.30
3868;DHT22;1949;48.152;11.528;2023-02-07T00:48:16;7.00;39.30
3868;DHT22;1949;48.152;11.528;2023-02-07T00:50:41;7.00;39.40
3868;DHT22;1949;48.152;11.528;2023-02-07T00:53:07;6.90;39.30
3868;DHT22;1949;48.152;11.528;2023-02-07T00:55:33;7.00;39.40
3868;DHT22;1949;48.152;11.528;2023-02-07T00:57:59;7.00;39.40
3868;DHT22;1949;48.152;11.528;2023-02-07T01:00:26;6.90;39.10
3868;DHT22;1949;48.152;11.528;2023-02-07T01:02:53;6.90;39.20
3868;DHT22;1949;48.152;11.528;2023-02-07T01:05:20;6.90;39.30
3868;DHT22;1949;48.152;11.528;2023-02-07T01:07:46;6.90;39.30
3868;DHT22;1949;48.152;11.528;2023-02-07T01:10:12;6.80;39.20
3868;DHT22;1949;48.152;11.528;2023-02-07T01:12:39;6.80;39.20
3868;DHT22;1949;48.152;11.528;2023-02-07T01:15:05;6.80;39.30
3868;DHT22;1949;48.152;11.528;2023-02-07T01:17:32;6.80;39.30
3868;DHT22;1949;48.152;11.528;2023-02-07T01:19:58;6.80;39.50
3868;DHT22;1949;48.152;11.528;2023-02-07T01:22:26;6.80;39.40
3868;DHT22;1949;48.152;11.528;2023-02-07T01:24:53;6.90;39.50
3868;DHT22;1949;48.152;11.528;2023-02-07T01:27:20;6.80;39.30
3868;DHT22;1949;48.152;11.528;2023-02-07T01:29:47;6.80;39.30
3868;DHT22;1949;48.152;11.528;2023-02-07T01:32:12;6.80;39.40
3868;DHT22;1949;48.152;11.528;2023-02-07T01:34:39;6.70;39.30
3868;DHT22;1949;48.152;11.528;2023-02-07T01:37:05;6.70;39.30
3868;DHT22;1949;48.152;11.528;2023-02-07T01:39:32;6.70;39.30
3868;DHT22;1949;48.152;11.528;2023-02-07T01:41:59;6.70;39.30
3868;DHT22;1949;48.152;11.528;2023-02-07T01:46:52;6.60;39.10
3868;DHT22;1949;48.152;11.528;2023-02-07T01:49:25;6.70;39.40
3868;DHT22;1949;48.152;11.528;2023-02-07T01:51:58;6.70;39.50
3868;DHT22;1949;48.152;11.528;2023-02-07T01:54:25;6.60;39.50
3868;DHT22;1949;48.152;11.528;2023-02-07T01:56:58;6.60;39.40
3868;DHT22;1949;48.152;11.528;2023-02-07T01:59:25;6.60;39.40
3868;DHT22;1949;48.152;11.528;2023-02-07T02:01:54;6.60;39.40
3868;DHT22;1949;48.152;11.528;2023-02-07T02:04:20;6.60;39.50
3868;DHT22;1949;48.152;11.528;2023-02-07T02:06:46;6.60;39.40
3868;DHT22;1949;48.152;11.528;2023-02-07T02:09:14;6.70;39.40
3868;DHT22;1949;48.152;11.528;2023-02-07T02:12:17;6.60;39.40
3868;DHT22;1949;48.152;11.528;2023-02-07T02:15:12;6.60;39.40
3868;DHT22;1949;48.152;11.528;2023-02-07T02:23:09;6.50;39.30
3868;DHT22;1949;48.152;11.528;2023-02-07T02:26:00;6.50;39.30
3868;DHT22;1949;48.152;11.528;2023-02-07T02:28:49;6.50;39.30
3868;DHT22;1949;48.152;11.528;2023-02-07T02:37:36;6.40;39.30
3868;DHT22;1949;48.152;11.528;2023-02-07T02:40:12;6.40;39.50
3868;DHT22;1949;48.152;11.528;2023-02-07T02:43:33;6.40;39.40
3868;DHT22;1949;48.152;11.528;2023-02-07T02:45:43;6.40;39.30
3868;DHT22;1949;48.152;11.528;2023-02-07T02:48:11;6.40;39.30
3868;DHT22;1949;48.152;11.528;2023-02-07T02:50:37;6.40;39.30
3868;DHT22;1949;48.152;11.528;2023-02-07T02:53:03;6.40;39.30
3868;DHT22;1949;48.152;11.528;2023-02-07T02:58:45;6.40;39.30
3868;DHT22;1949;48.152;11.528;2023-02-07T03:01:32;6.40;39.30
3868;DHT22;1949;48.152;11.528;2023-02-07T03:07:11;6.40;39.30
3868;DHT22;1949;48.152;11.528;2023-02-07T03:13:02;6.30;39.10
3868;DHT22;1949;48.152;11.528;2023-02-07T03:24:05;6.30;39.70
3868;DHT22;1949;48.152;11.528;2023-02-07T03:26:34;6.20;38.90
3868;DHT22;1949;48.152;11.528;2023-02-07T03:29:03;6.20;39.00
3868;DHT22;1949;48.152;11.528;2023-02-07T03:31:33;6.10;39.10
3868;DHT22;1949;48.152;11.528;2023-02-07T03:34:25;6.10;39.20
3868;DHT22;1949;48.152;11.528;2023-02-07T03:36:59;6.20;39.20
3868;DHT22;1949;48.152;11.528;2023-02-07T03:39:29;6.00;39.10
3868;DHT22;1949;48.152;11.528;2023-02-07T03:42:03;6.00;38.90
3868;DHT22;1949;48.152;11.528;2023-02-07T03:44:31;5.90;38.80
3868;DHT22;1949;48.152;11.528;2023-02-07T03:46:58;5.90;39.00
3868;DHT22;1949;48.152;11.528;2023-02-07T03:49:25;5.80;38.80
3868;DHT22;1949;48.152;11.528;2023-02-07T03:51:51;5.80;39.50
3868;DHT22;1949;48.152;11.528;2023-02-07T03:54:17;5.70;38.90
3868;DHT22;1949;48.152;11.528;2023-02-07T03:56:44;5.70;38.90
3868;DHT22;1949;48.152;11.528;2023-02-07T03:59:09;5.70;39.00
3868;DHT22;1949;48.152;11.528;2023-02-07T04:01:36;5.60;39.10
3868;DHT22;1949;48.152;11.528;2023-02-07T04:04:09;5.70;39.20
3868;DHT22;1949;48.152;11.528;2023-02-07T04:06:36;5.70;39.30
3868;DHT22;1949;48.152;11.528;2023-02-07T04:09:02;5.70;39.30
3868;DHT22;1949;48.152;11.528;2023-02-07T04:11:28;5.70;39.30
3868;DHT22;1949;48.152;11.528;2023-02-07T04:13:54;5.80;39.40
3868;DHT22;1949;48.152;11.528;2023-02-07T04:16:21;5.80;39.40
3868;DHT22;1949;48.152;11.528;2023-02-07T04:18:47;5.90;39.30
3868;DHT22;1949;48.152;11.528;2023-02-07T04:21:19;6.00;39.20
3868;DHT22;1949;48.152;11.528;2023-02-07T04:23:44;5.90;38.90
3868;DHT22;1949;48.152;11.528;2023-02-07T04:26:10;5.90;38.90
3868;DHT22;1949;48.152;11.528;2023-02-07T04:28:36;5.80;38.80
3868;DHT22;1949;48.152;11.528;2023-02-07T04:31:03;5.80;38.90
3868;DHT22;1949;48.152;11.528;2023-02-07T04:33:28;5.80;39.10
3868;DHT22;1949;48.152;11.528;2023-02-07T04:35:57;5.80;39.30
3868;DHT22;1949;48.152;11.528;2023-02-07T04:38:23;5.80;39.20
3868;DHT22;1949;48.152;11.528;2023-02-07T04:40:50;5.90;39.00
3868;DHT22;1949;48.152;11.528;2023-02-07T04:43:17;5.90;39.00
3868;DHT22;1949;48.152;11.528;2023-02-07T04:45:45;5.80;38.90
3868;DHT22;1949;48.152;11.528;2023-02-07T04:48:13;5.80;39.60
3868;DHT22;1949;48.152;11.528;2023-02-07T04:50:39;5.90;39.10
3868;DHT22;1949;48.152;11.528;2023-02-07T04:53:05;5.80;38.90
3868;DHT22;1949;48.152;11.528;2023-02-07T04:55:32;5.80;38.90
3868;DHT22;1949;48.152;11.528;2023-02-07T04:58:00;5.80;38.90
3868;DHT22;1949;48.152;11.528;2023-02-07T05:00:26;5.90;39.00
3868;DHT22;1949;48.152;11.528;2023-02-07T05:02:53;5.70;38.90
3868;DHT22;1949;48.152;11.528;2023-02-07T05:05:19;5.70;38.90
3868;DHT22;1949;48.152;11.528;2023-02-07T05:07:46;5.70;38.90
3868;DHT22;1949;48.152;11.528;2023-02-07T05:10:11;5.70;39.00
3868;DHT22;1949;48.152;11.528;2023-02-07T05:12:37;5.70;39.00
3868;DHT22;1949;48.152;11.528;2023-02-07T05:15:03;5.70;39.10
3868;DHT22;1949;48.152;11.528;2023-02-07T05:17:29;5.70;39.00
3868;DHT22;1949;48.152;11.528;2023-02-07T05:20:00;5.70;39.10
3868;DHT22;1949;48.152;11.528;2023-02-07T05:22:28;5.70;39.10
3868;DHT22;1949;48.152;11.528;2023-02-07T05:24:54;5.80;39.10
3868;DHT22;1949;48.152;11.528;2023-02-07T05:27:21;5.80;39.10
3868;DHT22;1949;48.152;11.528;2023-02-07T05:29:46;5.80;39.00
3868;DHT22;1949;48.152;11.528;2023-02-07T05:32:13;5.90;39.20
3868;DHT22;1949;48.152;11.528;2023-02-07T05:34:58;5.90;39.10
3868;DHT22;1949;48.152;11.528;2023-02-07T05:37:26;5.90;39.00
3868;DHT22;1949;48.152;11.528;2023-02-07T05:39:52;5.90;39.00
3868;DHT22;1949;48.152;11.528;2023-02-07T05:42:19;5.90;39.10
3868;DHT22;1949;48.152;11.528;2023-02-07T05:44:45;5.90;39.00
3868;DHT22;1949;48.152;11.528;2023-02-07T05:47:13;5.90;39.00
3868;DHT22;1949;48.152;11.528;2023-02-07T05:49:38;5.90;39.00
3868;DHT22;1949;48.152;11.528;2023-02-07T05:52:10;5.90;39.10
3868;DHT22;1949;48.152;11.528;2023-02-07T05:54:36;5.90;39.10
3868;DHT22;1949;48.152;11.528;2023-02-07T05:57:05;6.10;39.30
3868;DHT22;1949;48.152;11.528;2023-02-07T05:59:32;6.00;39.10
3868;DHT22;1949;48.152;11.528;2023-02-07T06:02:02;6.00;39.20
3868;DHT22;1949;48.152;11.528;2023-02-07T06:04:33;6.00;39.70
3868;DHT22;1949;48.152;11.528;2023-02-07T06:06:59;6.00;38.90
3868;DHT22;1949;48.152;11.528;2023-02-07T06:09:25;6.00;39.10
3868;DHT22;1949;48.152;11.528;2023-02-07T06:11:59;6.00;39.20
3868;DHT22;1949;48.152;11.528;2023-02-07T06:14:34;6.00;39.20
3868;DHT22;1949;48.152;11.528;2023-02-07T06:17:05;6.10;39.10
3868;DHT22;1949;48.152;11.528;2023-02-07T06:19:42;6.00;39.10
3868;DHT22;1949;48.152;11.528;2023-02-07T06:22:08;6.00;38.80
3868;DHT22;1949;48.152;11.528;2023-02-07T06:24:44;5.90;38.50
3868;DHT22;1949;48.152;11.528;2023-02-07T06:27:14;5.80;38.50
3868;DHT22;1949;48.152;11.528;2023-02-07T06:29:43;5.70;38.60
3868;DHT22;1949;48.152;11.528;2023-02-07T06:32:08;5.70;38.90
3868;DHT22;1949;48.152;11.528;2023-02-07T06:34:34;5.60;39.10
3868;DHT22;1949;48.152;11.528;2023-02-07T06:37:00;5.70;39.10
3868;DHT22;1949;48.152;11.528;2023-02-07T06:39:26;5.70;39.10
3868;DHT22;1949;48.152;11.528;2023-02-07T06:41:51;5.70;39.10
3868;DHT22;1949;48.152;11.528;2023-02-07T06:44:17;5.70;39.10
3868;DHT22;1949;48.152;11.528;2023-02-07T06:46:43;5.90;39.30
3868;DHT22;1949;48.152;11.528;2023-02-07T06:49:09;5.80;39.10
3868;DHT22;1949;48.152;11.528;2023-02-07T06:51:35;5.80;38.90
3868;DHT22;1949;48.152;11.528;2023-02-07T06:54:01;5.80;38.70
3868;DHT22;1949;48.152;11.528;2023-02-07T06:56:28;5.70;38.60
3868;DHT22;1949;48.152;11.528;2023-02-07T06:58:54;5.70;38.70
3868;DHT22;1949;48.152;11.528;2023-02-07T07:01:21;5.60;38.50
3868;DHT22;1949;48.152;11.528;2023-02-07T07:03:47;5.50;38.50
3868;DHT22;1949;48.152;11.528;2023-02-07T07:06:13;5.50;38.70
3868;DHT22;1949;48.152;11.528;2023-02-07T07:08:38;5.50;38.80
3868;DHT22;1949;48.152;11.528;2023-02-07T07:11:07;5.30;38.70
3868;DHT22;1949;48.152;11.528;2023-02-07T07:13:35;5.30;39.00
3868;DHT22;1949;48.152;11.528;2023-02-07T07:16:03;5.30;39.00
3868;DHT22;1949;48.152;11.528;2023-02-07T07:18:29;5.30;39.10
3868;DHT22;1949;48.152;11.528;2023-02-07T07:20:55;5.40;39.20
3868;DHT22;1949;48.152;11.528;2023-02-07T07:23:21;5.40;39.00
3868;DHT22;1949;48.152;11.528;2023-02-07T07:25:47;5.50;39.10
3868;DHT22;1949;48.152;11.528;2023-02-07T07:28:13;5.50;39.00
3868;DHT22;1949;48.152;11.528;2023-02-07T07:30:39;5.50;39.10
3868;DHT22;1949;48.152;11.528;2023-02-07T07:33:05;5.50;39.10
3868;DHT22;1949;48.152;11.528;2023-02-07T07:35:31;5.60;38.90
3868;DHT22;1949;48.152;11.528;2023-02-07T07:37:58;5.60;38.90
3868;DHT22;1949;48.152;11.528;2023-02-07T07:40:23;5.60;39.00
3868;DHT22;1949;48.152;11.528;2023-02-07T07:42:49;5.60;39.00
3868;DHT22;1949;48.152;11.528;2023-02-07T07:45:15;5.60;38.90
3868;DHT22;1949;48.152;11.528;2023-02-07T07:47:41;5.60;38.90
3868;DHT22;1949;48.152;11.528;2023-02-07T07:50:07;5.70;39.00
3868;DHT22;1949;48.152;11.528;2023-02-07T07:52:33;5.70;39.10
3868;DHT22;1949;48.152;11.528;2023-02-07T07:54:59;5.70;38.80
3868;DHT22;1949;48.152;11.528;2023-02-07T07:57:25;5.60;38.80
3868;DHT22;1949;48.152;11.528;2023-02-07T07:59:53;5.70;38.90
3868;DHT22;1949;48.152;11.528;2023-02-07T08:02:19;5.70;38.70
3868;DHT22;1949;48.152;11.528;2023-02-07T08:04:45;5.70;38.70
3868;DHT22;1949;48.152;11.528;2023-02-07T08:07:11;5.60;38.50
3868;DHT22;1949;48.152;11.528;2023-02-07T08:09:37;5.60;38.60
3868;DHT22;1949;48.152;11.528;2023-02-07T08:12:03;5.60;38.70
3868;DHT22;1949;48.152;11.528;2023-02-07T08:14:29;5.60;38.70
3868;DHT22;1949;48.152;11.528;2023-02-07T08:16:54;5.60;38.80
3868;DHT22;1949;48.152;11.528;2023-02-07T08:19:20;5.50;38.70
3868;DHT22;1949;48.152;11.528;2023-02-07T08:21:46;5.50;38.80
3868;DHT22;1949;48.152;11.528;2023-02-07T08:24:12;5.60;39.10
3868;DHT22;1949;48.152;11.528;2023-02-07T08:26:38;5.60;39.10
3868;DHT22;1949;48.152;11.528;2023-02-07T08:29:04;5.70;39.10
3868;DHT22;1949;48.152;11.528;2023-02-07T08:31:31;5.70;39.10
3868;DHT22;1949;48.152;11.528;2023-02-07T08:33:58;5.80;38.90
3868;DHT22;1949;48.152;11.528;2023-02-07T08:36:24;5.80;38.80
3868;DHT22;1949;48.152;11.528;2023-02-07T08:38:50;5.80;38.80
3868;DHT22;1949;48.152;11.528;2023-02-07T08:41:16;5.90;38.90
3868;DHT22;1949;48.152;11.528;2023-02-07T08:43:41;5.90;39.10
3868;DHT22;1949;48.152;11.528;2023-02-07T08:46:08;5.90;38.90
3868;DHT22;1949;48.152;11.528;2023-02-07T08:48:34;5.90;39.00
3868;DHT22;1949;48.152;11.528;2023-02-07T08:51:05;6.00;39.00
3868;DHT22;1949;48.152;11.528;2023-02-07T08:53:31;6.00;38.90
3868;DHT22;1949;48.152;11.528;2023-02-07T08:55:57;6.00;38.90
3868;DHT22;1949;48.152;11.528;2023-02-07T08:58:23;6.00;38.80
3868;DHT22;1949;48.152;11.528;2023-02-07T09:00:49;6.00;38.80
3868;DHT22;1949;48.152;11.528;2023-02-07T09:03:15;6.00;38.80
3868;DHT22;1949;48.152;11.528;2023-02-07T09:05:42;6.00;38.90
3868;DHT22;1949;48.152;11.528;2023-02-07T09:08:08;6.10;39.10
3868;DHT22;1949;48.152;11.528;2023-02-07T09:10:33;6.10;39.00
3868;DHT22;1949;48.152;11.528;2023-02-07T09:12:59;6.10;39.10
3868;DHT22;1949;48.152;11.528;2023-02-07T09:15:25;6.20;39.10
3868;DHT22;1949;48.152;11.528;2023-02-07T09:17:51;6.20;39.10
3868;DHT22;1949;48.152;11.528;2023-02-07T09:20:17;6.30;39.10
3868;DHT22;1949;48.152;11.528;2023-02-07T09:22:43;6.30;38.90
3868;DHT22;1949;48.152;11.528;2023-02-07T09:25:27;6.30;39.00
3868;DHT22;1949;48.152;11.528;2023-02-07T09:27:53;6.40;38.90
3868;DHT22;1949;48.152;11.528;2023-02-07T09:30:20;6.40;38.90
3868;DHT22;1949;48.152;11.528;2023-02-07T09:32:46;6.40;39.00
3868;DHT22;1949;48.152;11.528;2023-02-07T09:35:12;6.40;38.90
3868;DHT22;1949;48.152;11.528;2023-02-07T09:37:37;6.40;38.90
3868;DHT22;1949;48.152;11.528;2023-02-07T09:40:04;6.40;38.90
3868;DHT22;1949;48.152;11.528;2023-02-07T09:45:22;6.50;39.10
3868;DHT22;1949;48.152;11.528;2023-02-07T09:47:53;6.50;39.00
3868;DHT22;1949;48.152;11.528;2023-02-07T09:50:30;6.50;39.00
3868;DHT22;1949;48.152;11.528;2023-02-07T09:53:05;6.50;39.10
3868;DHT22;1949;48.152;11.528;2023-02-07T09:58:11;6.60;39.20
3868;DHT22;1949;48.152;11.528;2023-02-07T10:00:39;6.60;39.00
3868;DHT22;1949;48.152;11.528;2023-02-07T10:03:21;6.60;39.00
3868;DHT22;1949;48.152;11.528;2023-02-07T10:06:02;6.60;39.10
3868;DHT22;1949;48.152;11.528;2023-02-07T10:08:28;6.70;39.10
3868;DHT22;1949;48.152;11.528;2023-02-07T10:30:22;6.70;39.00
3868;DHT22;1949;48.152;11.528;2023-02-07T10:32:49;6.70;39.10
3868;DHT22;1949;48.152;11.528;2023-02-07T10:37:49;6.70;38.90
3868;DHT22;1949;48.152;11.528;2023-02-07T10:40:32;6.70;39.00
3868;DHT22;1949;48.152;11.528;2023-02-07T10:43:07;6.70;39.10
3868;DHT22;1949;48.152;11.528;2023-02-07T10:45:35;6.80;39.30
3868;DHT22;1949;48.152;11.528;2023-02-07T10:48:13;6.80;39.30
3868;DHT22;1949;48.152;11.528;2023-02-07T10:50:39;6.80;39.30
3868;DHT22;1949;48.152;11.528;2023-02-07T10:53:05;6.80;39.30
3868;DHT22;1949;48.152;11.528;2023-02-07T10:55:48;6.90;39.40
3868;DHT22;1949;48.152;11.528;2023-02-07T10:58:22;6.90;39.20
3868;DHT22;1949;48.152;11.528;2023-02-07T11:00:50;6.90;39.70
3868;DHT22;1949;48.152;11.528;2023-02-07T11:03:20;6.90;39.10
3868;DHT22;1949;48.152;11.528;2023-02-07T11:06:00;6.90;39.20
3868;DHT22;1949;48.152;11.528;2023-02-07T11:08:31;7.00;39.40
3868;DHT22;1949;48.152;11.528;2023-02-07T11:11:15;7.00;39.40
3868;DHT22;1949;48.152;11.528;2023-02-07T11:13:48;7.10;39.40
3868;DHT22;1949;48.152;11.528;2023-02-07T11:16:16;7.20;39.50
3868;DHT22;1949;48.152;11.528;2023-02-07T11:19:05;7.20;39.40
3868;DHT22;1949;48.152;11.528;2023-02-07T11:21:41;7.30;39.30
3868;DHT22;1949;48.152;11.528;2023-02-07T11:24:28;7.30;39.30
3868;DHT22;1949;48.152;11.528;2023-02-07T11:29:30;7.40;39.40
3868;DHT22;1949;48.152;11.528;2023-02-07T11:31:58;7.40;39.30
3868;DHT22;1949;48.152;11.528;2023-02-07T11:37:35;7.50;39.20
3868;DHT22;1949;48.152;11.528;2023-02-07T11:40:47;7.60;39.20
3868;DHT22;1949;48.152;11.528;2023-02-07T11:45:34;7.80;39.20
3868;DHT22;1949;48.152;11.528;2023-02-07T11:48:02;7.90;39.20
3868;DHT22;1949;48.152;11.528;2023-02-07T11:50:39;8.00;39.20
3868;DHT22;1949;48.152;11.528;2023-02-07T11:53:06;8.10;39.20
3868;DHT22;1949;48.152;11.528;2023-02-07T11:55:38;8.20;39.30
3868;DHT22;1949;48.152;11.528;2023-02-07T11:58:16;8.30;39.10
3868;DHT22;1949;48.152;11.528;2023-02-07T12:00:43;8.40;39.10
3868;DHT22;1949;48.152;11.528;2023-02-07T12:03:40;8.50;39.20
3868;DHT22;1949;48.152;11.528;2023-02-07T12:06:13;8.70;39.30
3868;DHT22;1949;48.152;11.528;2023-02-07T12:08:40;8.80;39.00
3868;DHT22;1949;48.152;11.528;2023-02-07T12:11:15;8.90;39.00
3868;DHT22;1949;48.152;11.528;2023-02-07T12:14:07;9.10;39.10
3868;DHT22;1949;48.152;11.528;2023-02-07T12:16:45;9.30;39.10
3868;DHT22;1949;48.152;11.528;2023-02-07T12:19:23;9.50;39.10
3868;DHT22;1949;48.152;11.528;2023-02-07T12:22:17;9.60;38.90
3868;DHT22;1949;48.152;11.528;2023-02-07T12:24:50;9.90;38.90
3868;DHT22;1949;48.152;11.528;2023-02-07T12:27:18;10.00;37.70
3868;DHT22;1949;48.152;11.528;2023-02-07T12:38:53;10.90;37.70
3868;DHT22;1949;48.152;11.528;2023-02-07T12:41:38;11.10;37.60
3868;DHT22;1949;48.152;11.528;2023-02-07T12:44:20;11.30;37.50
3868;DHT22;1949;48.152;11.528;2023-02-07T12:46:53;11.50;37.40
3868;DHT22;1949;48.152;11.528;2023-02-07T12:52:21;11.90;37.30
3868;DHT22;1949;48.152;11.528;2023-02-07T12:55:02;12.00;36.90
3868;DHT22;1949;48.152;11.528;2023-02-07T13:11:42;13.40;36.20
3868;DHT22;1949;48.152;11.528;2023-02-07T13:22:38;14.10;35.60
3868;DHT22;1949;48.152;11.528;2023-02-07T13:25:21;14.20;35.40
3868;DHT22;1949;48.152;11.528;2023-02-07T13:27:51;14.40;35.10
3868;DHT22;1949;48.152;11.528;2023-02-07T13:30:20;14.50;34.90
3868;DHT22;1949;48.152;11.528;2023-02-07T13:32:48;14.60;34.80
3868;DHT22;1949;48.152;11.528;2023-02-07T13:35:25;14.60;34.50
3868;DHT22;1949;48.152;11.528;2023-02-07T13:40:35;14.70;34.20
3868;DHT22;1949;48.152;11.528;2023-02-07T13:43:19;14.70;34.20
3868;DHT22;1949;48.152;11.528;2023-02-07T13:54:15;14.50;34.10
3868;DHT22;1949;48.152;11.528;2023-02-07T13:56:59;14.50;34.10
3868;DHT22;1949;48.152;11.528;2023-02-07T14:00:03;14.50;34.10
3868;DHT22;1949;48.152;11.528;2023-02-07T14:02:29;14.50;34.20
3868;DHT22;1949;48.152;11.528;2023-02-07T14:05:06;14.60;34.10
3868;DHT22;1949;48.152;11.528;2023-02-07T14:07:34;14.60;33.90
3868;DHT22;1949;48.152;11.528;2023-02-07T14:10:02;14.70;33.80
3868;DHT22;1949;48.152;11.528;2023-02-07T14:12:37;14.70;33.70
3868;DHT22;1949;48.152;11.528;2023-02-07T14:18:39;14.90;34.10
3868;DHT22;1949;48.152;11.528;2023-02-07T14:31:58;15.50;33.20
3868;DHT22;1949;48.152;11.528;2023-02-07T14:34:29;15.60;33.00
3868;DHT22;1949;48.152;11.528;2023-02-07T14:36:55;15.70;32.80
3868;DHT22;1949;48.152;11.528;2023-02-07T14:39:30;15.80;32.80
3868;DHT22;1949;48.152;11.528;2023-02-07T14:42:15;15.90;32.60
3868;DHT22;1949;48.152;11.528;2023-02-07T14:44:44;16.00;32.50
3868;DHT22;1949;48.152;11.528;2023-02-07T14:47:26;16.10;32.30
3868;DHT22;1949;48.152;11.528;2023-02-07T14:49:56;16.20;32.20
3868;DHT22;1949;48.152;11.528;2023-02-07T14:52:29;16.20;32.00
3868;DHT22;1949;48.152;11.528;2023-02-07T14:55:36;16.30;31.90
3868;DHT22;1949;48.152;11.528;2023-02-07T14:58:35;16.30;32.10
3868;DHT22;1949;48.152;11.528;2023-02-07T15:01:12;16.30;31.80
3868;DHT22;1949;48.152;11.528;2023-02-07T15:03:38;16.30;31.40
3868;DHT22;1949;48.152;11.528;2023-02-07T15:06:19;16.20;31.40
3868;DHT22;1949;48.152;11.528;2023-02-07T15:08:57;15.90;30.90
3868;DHT22;1949;48.152;11.528;2023-02-07T15:11:25;15.60;30.60
3868;DHT22;1949;48.152;11.528;2023-02-07T15:13:55;15.20;30.50
3868;DHT22;1949;48.152;11.528;2023-02-07T15:16:25;14.80;30.50
3868;DHT22;1949;48.152;11.528;2023-02-07T15:19:13;14.40;30.50
3868;DHT22;1949;48.152;11.528;2023-02-07T15:21:45;14.00;31.10
3868;DHT22;1949;48.152;11.528;2023-02-07T15:24:32;13.70;31.00
3868;DHT22;1949;48.152;11.528;2023-02-07T15:27:03;13.40;31.10
3868;DHT22;1949;48.152;11.528;2023-02-07T15:29:32;13.10;31.30
3868;DHT22;1949;48.152;11.528;2023-02-07T15:31:59;12.90;31.50
3868;DHT22;1949;48.152;11.528;2023-02-07T15:34:32;12.70;31.60
3868;DHT22;1949;48.152;11.528;2023-02-07T15:37:13;12.50;31.50
3868;DHT22;1949;48.152;11.528;2023-02-07T15:39:39;12.30;31.70
3868;DHT22;1949;48.152;11.528;2023-02-07T15:42:05;12.10;31.80
3868;DHT22;1949;48.152;11.528;2023-02-07T15:44:49;12.00;32.00
3868;DHT22;1949;48.152;11.528;2023-02-07T15:47:35;11.80;31.90
3868;DHT22;1949;48.152;11.528;2023-02-07T15:50:28;11.70;32.20
3868;DHT22;1949;48.152;11.528;2023-02-07T15:53:02;11.60;32.20
3868;DHT22;1949;48.152;11.528;2023-02-07T15:55:46;11.50;32.10
3868;DHT22;1949;48.152;11.528;2023-02-07T15:58:30;11.30;32.00
3868;DHT22;1949;48.152;11.528;2023-02-07T16:01:04;11.20;32.30
3868;DHT22;1949;48.152;11.528;2023-02-07T16:03:36;11.20;32.30
3868;DHT22;1949;48.152;11.528;2023-02-07T16:08:47;10.90;32.40
3868;DHT22;1949;48.152;11.528;2023-02-07T16:11:37;10.90;32.50
3868;DHT22;1949;48.152;11.528;2023-02-07T16:14:24;10.80;32.60
3868;DHT22;1949;48.152;11.528;2023-02-07T16:17:00;10.80;32.40
3868;DHT22;1949;48.152;11.528;2023-02-07T16:19:32;10.70;32.50
3868;DHT22;1949;48.152;11.528;2023-02-07T16:22:11;10.60;32.50
3868;DHT22;1949;48.152;11.528;2023-02-07T16:24:42;10.60;32.50
3868;DHT22;1949;48.152;11.528;2023-02-07T16:27:17;10.50;32.50
3868;DHT22;1949;48.152;11.528;2023-02-07T16:29:43;10.40;32.50
3868;DHT22;1949;48.152;11.528;2023-02-07T16:32:12;10.40;32.70
3868;DHT22;1949;48.152;11.528;2023-02-07T16:34:44;10.40;32.60
3868;DHT22;1949;48.152;11.528;2023-02-07T16:37:10;10.30;32.60
3868;DHT22;1949;48.152;11.528;2023-02-07T16:39:38;10.30;32.70
3868;DHT22;1949;48.152;11.528;2023-02-07T16:42:12;10.30;32.70
3868;DHT22;1949;48.152;11.528;2023-02-07T16:44:39;10.20;32.60
3868;DHT22;1949;48.152;11.528;2023-02-07T16:47:05;10.20;32.60
3868;DHT22;1949;48.152;11.528;2023-02-07T16:49:32;10.20;32.60
3868;DHT22;1949;48.152;11.528;2023-02-07T16:51:58;10.10;32.60
3868;DHT22;1949;48.152;11.528;2023-02-07T16:54:24;10.00;32.60
3868;DHT22;1949;48.152;11.528;2023-02-07T16:56:56;10.00;32.60
3868;DHT22;1949;48.152;11.528;2023-02-07T16:59:23;10.00;32.60
3868;DHT22;1949;48.152;11.528;2023-02-07T17:01:51;10.00;32.70
3868;DHT22;1949;48.152;11.528;2023-02-07T17:04:21;9.90;33.60
3868;DHT22;1949;48.152;11.528;2023-02-07T17:06:47;9.90;33.70
3868;DHT22;1949;48.152;11.528;2023-02-07T17:09:22;9.90;33.70
3868;DHT22;1949;48.152;11.528;2023-02-07T17:11:48;9.90;33.70
3868;DHT22;1949;48.152;11.528;2023-02-07T17:14:14;9.90;33.70
3868;DHT22;1949;48.152;11.528;2023-02-07T17:16:40;9.80;33.60
3868;DHT22;1949;48.152;11.528;2023-02-07T17:19:17;9.80;33.70
3868;DHT22;1949;48.152;11.528;2023-02-07T17:21:46;9.80;33.60
3868;DHT22;1949;48.152;11.528;2023-02-07T17:24:12;9.70;33.60
3868;DHT22;1949;48.152;11.528;2023-02-07T17:26:41;9.70;33.60
3868;DHT22;1949;48.152;11.528;2023-02-07T17:29:14;9.70;33.70
3868;DHT22;1949;48.152;11.528;2023-02-07T17:31:42;9.70;33.80
3868;DHT22;1949;48.152;11.528;2023-02-07T17:34:08;9.70;33.90
3868;DHT22;1949;48.152;11.528;2023-02-07T17:36:35;9.70;34.00
3868;DHT22;1949;48.152;11.528;2023-02-07T17:39:02;9.60;33.90
3868;DHT22;1949;48.152;11.528;2023-02-07T17:41:29;9.80;33.90
3868;DHT22;1949;48.152;11.528;2023-02-07T17:43:56;9.60;33.60
3868;DHT22;1949;48.152;11.528;2023-02-07T17:46:24;9.60;33.50
3868;DHT22;1949;48.152;11.528;2023-02-07T17:48:53;9.50;33.60
3868;DHT22;1949;48.152;11.528;2023-02-07T17:51:21;9.50;33.50
3868;DHT22;1949;48.152;11.528;2023-02-07T17:53:50;9.50;33.50
3868;DHT22;1949;48.152;11.528;2023-02-07T17:56:29;9.50;33.60
3868;DHT22;1949;48.152;11.528;2023-02-07T17:59:02;9.30;33.60
3868;DHT22;1949;48.152;11.528;2023-02-07T18:01:29;9.30;33.70
3868;DHT22;1949;48.152;11.528;2023-02-07T18:03:56;9.40;33.70
3868;DHT22;1949;48.152;11.528;2023-02-07T18:06:26;9.30;33.50
3868;DHT22;1949;48.152;11.528;2023-02-07T18:08:53;9.30;33.50
3868;DHT22;1949;48.152;11.528;2023-02-07T18:11:21;9.20;33.60
3868;DHT22;1949;48.152;11.528;2023-02-07T18:13:48;9.20;33.60
3868;DHT22;1949;48.152;11.528;2023-02-07T18:16:21;9.20;33.60
3868;DHT22;1949;48.152;11.528;2023-02-07T18:18:49;9.10;33.60
3868;DHT22;1949;48.152;11.528;2023-02-07T18:21:15;9.10;33.70
3868;DHT22;1949;48.152;11.528;2023-02-07T18:23:41;9.20;33.80
3868;DHT22;1949;48.152;11.528;2023-02-07T18:26:13;9.10;33.60
3868;DHT22;1949;48.152;11.528;2023-02-07T18:28:42;9.00;33.60
3868;DHT22;1949;48.152;11.528;2023-02-07T18:31:18;9.00;33.60